Terminal Aerodrome Forecast
Issued by NWS

Home | Current Version | Previous Version | Text Only | Print | Product List | Glossary On
Versions: 1 2 3 4 5 6 7 8 9 10 11 12 13 14 15
000
FTUS43 KTOP 202300
TAFMHK
TAF
KMHK 202339Z 2100/2124 20011KT P6SM SCT080 BKN140
     FM210500 22006KT P6SM -SHRA BKN050
     FM211000 25004KT 4SM -SHRA BR BKN030
     FM211400 31008KT P6SM VCSH BKN035
     FM211900 33013KT P6SM SCT040=

USA.gov is the U.S. government's official web portal to all federal, state and local government web resources and services.